Time;durP1;ratioP1;P1;durP2;ratioP2;P2;SDS_P1;SDS_P2;PMS_P1;PMS_P2;Temp;Humidity;BMP_temperature;BMP_pressure;BME280_temperature;BME280_humidity;BME280_pressure;Samples;Min_cycle;Max_cycle;Signal;HPM_P1;HPM_P2
2024/04/08 00:01:34;;;;;;;5.85;1.55;;;;;;;15.70;100.00;101031.94;6276350;28;20441;-82
2024/04/08 00:04:35;;;;;;;4.35;1.35;;;;;;;15.58;100.00;101035.41;6276171;28;20345;-82
2024/04/08 00:07:38;;;;;;;1.92;1.00;;;;;;;15.57;100.00;101041.66;6276688;28;20101;-82
2024/04/08 00:10:38;;;;;;;3.20;1.40;;;;;;;15.63;100.00;101036.81;6275668;28;20049;-82
2024/04/08 00:13:39;;;;;;;4.13;1.27;;;;;;;15.59;100.00;101018.59;6276261;28;20045;-83
2024/04/08 00:16:40;;;;;;;8.43;1.42;;;;;;;15.56;100.00;101006.38;6275977;28;20073;-82
2024/04/08 00:19:41;;;;;;;4.75;1.35;;;;;;;15.57;100.00;100991.34;6276053;28;20414;-83
2024/04/08 00:22:44;;;;;;;2.15;1.30;;;;;;;15.57;100.00;100986.03;6275062;28;20045;-82
2024/04/08 00:25:45;;;;;;;2.17;1.10;;;;;;;15.52;100.00;100962.53;6275506;28;20055;-82
2024/04/08 00:28:45;;;;;;;2.40;1.02;;;;;;;15.58;100.00;100961.25;6275788;28;20049;-83
2024/04/08 00:31:47;;;;;;;3.42;1.73;;;;;;;15.59;100.00;100952.34;6275379;28;20045;-83
2024/04/08 00:34:47;;;;;;;4.35;1.55;;;;;;;15.56;100.00;100953.41;6275632;28;20331;-83
2024/04/08 00:37:51;;;;;;;4.88;1.63;;;;;;;15.56;100.00;100950.75;6275404;28;20051;-82
2024/04/08 00:40:52;;;;;;;1.50;1.20;;;;;;;15.53;100.00;100940.38;6275449;28;20049;-85
2024/04/08 00:43:53;;;;;;;7.20;1.88;;;;;;;15.54;100.00;100933.31;6275257;28;20376;-84
2024/04/08 00:46:54;;;;;;;4.25;1.50;;;;;;;15.46;100.00;100934.69;6275289;28;20350;-85
2024/04/08 00:49:55;;;;;;;3.17;1.90;;;;;;;15.50;100.00;100937.97;6273930;28;20041;-84
2024/04/08 00:52:58;;;;;;;4.03;1.40;;;;;;;15.48;100.00;100947.81;6274869;28;20041;-83
2024/04/08 00:55:58;;;;;;;5.60;1.58;;;;;;;15.52;100.00;100943.97;6275320;28;20421;-83
2024/04/08 00:59:02;;;;;;;6.55;2.58;;;;;;;15.56;100.00;100940.16;6247176;28;20052;-84
2024/04/08 01:02:04;;;;;;;6.20;1.75;;;;;;;15.50;100.00;100932.66;6272455;28;20041;-84
2024/04/08 01:05:08;;;;;;;2.83;1.88;;;;;;;15.43;100.00;100934.03;6274947;28;20041;-85
2024/04/08 01:08:11;;;;;;;2.63;1.30;;;;;;;15.40;100.00;100923.69;6275117;28;20140;-84
2024/04/08 01:11:12;;;;;;;4.55;1.77;;;;;;;15.43;100.00;100929.59;6274691;28;20131;-85
2024/04/08 01:14:13;;;;;;;4.10;1.15;;;;;;;15.43;100.00;100944.63;6275032;28;20082;-85
2024/04/08 01:17:16;;;;;;;6.03;1.30;;;;;;;15.50;100.00;100934.47;6274893;28;20049;-84
2024/04/08 01:20:17;;;;;;;4.93;1.40;;;;;;;15.50;100.00;100943.25;6275056;28;20052;-85
2024/04/08 01:23:21;;;;;;;3.20;1.30;;;;;;;15.51;100.00;100950.25;6274718;28;20353;-84
2024/04/08 01:26:23;;;;;;;3.58;1.20;;;;;;;15.51;100.00;100960.84;6274928;28;20045;-84
2024/04/08 01:29:25;;;;;;;4.50;1.27;;;;;;;15.53;100.00;100945.66;6275136;28;20048;-84
2024/04/08 01:32:26;;;;;;;0.70;0.70;;;;;;;15.57;100.00;100941.84;6274596;28;20128;-84
2024/04/08 01:35:26;;;;;;;7.22;1.80;;;;;;;15.56;100.00;100949.91;6276835;28;20052;-82
2024/04/08 01:38:28;;;;;;;2.63;1.20;;;;;;;15.58;100.00;100948.00;6279835;28;20049;-82
2024/04/08 01:41:30;;;;;;;6.68;1.52;;;;;;;15.43;100.00;100950.78;6279568;28;20053;-82
2024/04/08 01:44:31;;;;;;;3.25;1.10;;;;;;;15.51;100.00;100952.06;6279323;28;20048;-83
2024/04/08 01:47:32;;;;;;;6.57;1.40;;;;;;;15.47;100.00;100957.56;6279654;28;20183;-83
2024/04/08 01:50:33;;;;;;;3.70;1.10;;;;;;;15.51;100.00;100967.94;6279221;28;20045;-83
2024/04/08 01:53:33;;;;;;;2.63;1.55;;;;;;;15.48;100.00;100974.28;6279695;28;20048;-83
2024/04/08 01:56:36;;;;;;;2.58;1.30;;;;;;;15.47;100.00;100980.53;6279229;28;20049;-83
2024/04/08 01:59:37;;;;;;;3.70;1.23;;;;;;;15.47;100.00;100962.00;6279005;28;20392;-83
2024/04/08 02:02:38;;;;;;;2.13;1.27;;;;;;;15.39;100.00;100974.94;6279027;28;20091;-84
2024/04/08 02:05:38;;;;;;;6.68;1.42;;;;;;;15.37;100.00;100987.44;6279005;28;20052;-83
2024/04/08 02:08:40;;;;;;;2.38;1.30;;;;;;;15.36;100.00;100996.34;6279105;28;20049;-84
2024/04/08 02:11:41;;;;;;;2.03;1.42;;;;;;;15.35;100.00;100994.63;6278691;28;20057;-83
2024/04/08 02:14:43;;;;;;;4.53;1.85;;;;;;;15.33;100.00;101002.69;6279105;28;20044;-83
2024/04/08 02:17:43;;;;;;;3.60;1.23;;;;;;;15.31;100.00;100994.03;6278697;28;20045;-84
2024/04/08 02:20:44;;;;;;;6.47;1.40;;;;;;;15.33;100.00;100981.50;6278644;28;20049;-83
2024/04/08 02:23:45;;;;;;;4.63;1.35;;;;;;;15.35;100.00;100970.81;6278668;28;20052;-84
2024/04/08 02:26:47;;;;;;;2.72;1.33;;;;;;;15.33;100.00;100970.91;6278335;28;20409;-84
2024/04/08 02:29:48;;;;;;;3.05;1.50;;;;;;;15.31;100.00;100966.69;6268385;28;20326;-84
2024/04/08 02:32:49;;;;;;;4.57;1.50;;;;;;;15.29;100.00;100950.91;6278420;28;20080;-84
2024/04/08 02:35:49;;;;;;;5.30;1.83;;;;;;;15.30;100.00;100947.28;6278360;28;20048;-83
2024/04/08 02:38:51;;;;;;;2.45;1.70;;;;;;;15.28;100.00;100953.66;6273603;28;20051;-84
2024/04/08 02:41:53;;;;;;;5.32;2.10;;;;;;;15.22;100.00;100949.66;6278198;28;20052;-83
2024/04/08 02:44:54;;;;;;;4.28;1.80;;;;;;;15.26;100.00;100955.56;6262732;28;20037;-84
2024/04/08 02:47:56;;;;;;;2.45;1.30;;;;;;;15.33;100.00;100972.72;6277610;28;20045;-84
2024/04/08 02:50:58;;;;;;;1.83;1.52;;;;;;;15.27;100.00;100968.72;6277676;28;20049;-84
2024/04/08 02:53:58;;;;;;;6.03;1.73;;;;;;;15.27;100.00;100971.34;6278132;28;20041;-84
2024/04/08 02:57:01;;;;;;;5.35;1.98;;;;;;;15.22;100.00;100966.38;6277691;28;20465;-84
2024/04/08 03:00:01;;;;;;;3.95;1.38;;;;;;;15.21;100.00;100955.88;6275964;28;20044;-84
2024/04/08 03:03:03;;;;;;;3.15;1.55;;;;;;;15.18;100.00;100950.81;6262402;28;20045;-84
2024/04/08 03:06:09;;;;;;;1.65;1.40;;;;;;;15.12;100.00;100946.75;6265483;28;20354;-84
2024/04/08 03:09:09;;;;;;;4.65;1.80;;;;;;;15.07;100.00;100937.47;6275808;28;20052;-84
2024/04/08 03:12:12;;;;;;;6.53;1.65;;;;;;;14.96;100.00;100932.91;6277050;28;20045;-84
2024/04/08 03:15:12;;;;;;;3.80;1.90;;;;;;;14.95;100.00;100918.00;6277570;28;20048;-83
2024/04/08 03:18:14;;;;;;;8.02;1.73;;;;;;;14.87;100.00;100915.03;6277773;28;20430;-84
2024/04/08 03:21:14;;;;;;;2.42;1.48;;;;;;;14.91;100.00;100916.50;6277170;28;20051;-84
2024/04/08 03:24:16;;;;;;;2.20;1.60;;;;;;;14.92;100.00;100920.84;6277071;28;20040;-84
2024/04/08 03:27:17;;;;;;;3.20;1.60;;;;;;;14.88;100.00;100924.66;6277290;28;20041;-84
2024/04/08 03:30:19;;;;;;;5.40;1.75;;;;;;;14.85;100.00;100930.13;6276894;28;20044;-84
2024/04/08 03:33:21;;;;;;;7.20;1.70;;;;;;;14.83;100.00;100909.09;6277147;28;20071;-84
2024/04/08 03:36:21;;;;;;;3.05;2.10;;;;;;;14.83;100.00;100906.44;6276833;28;20052;-84
2024/04/08 03:39:23;;;;;;;10.50;3.10;;;;;;;14.82;100.00;100927.72;6277149;28;20049;-83
2024/04/08 03:42:25;;;;;;;3.47;1.70;;;;;;;14.79;100.00;100934.06;6276649;28;20048;-84
2024/04/08 03:45:27;;;;;;;5.07;1.80;;;;;;;14.71;100.00;100936.38;6276495;28;20064;-84
2024/04/08 03:48:29;;;;;;;4.47;2.17;;;;;;;14.70;100.00;100932.03;6276669;28;20510;-84
2024/04/08 03:51:30;;;;;;;4.35;1.75;;;;;;;14.67;100.00;100929.59;6276256;28;20523;-83
2024/04/08 03:54:32;;;;;;;3.13;1.83;;;;;;;14.64;100.00;100916.59;6276667;28;20044;-84
2024/04/08 03:57:33;;;;;;;3.35;1.95;;;;;;;14.62;100.00;100924.59;6275355;28;20426;-83
2024/04/08 04:00:35;;;;;;;2.45;1.60;;;;;;;14.59;100.00;100914.25;6276299;28;20049;-83
2024/04/08 04:03:36;;;;;;;3.22;1.85;;;;;;;14.63;100.00;100899.88;6276217;28;20049;-83
2024/04/08 04:06:37;;;;;;;2.80;1.63;;;;;;;14.65;100.00;100900.59;6276402;28;20041;-83
2024/04/08 04:09:38;;;;;;;8.68;1.73;;;;;;;14.65;100.00;100905.91;6276198;28;20064;-82
2024/04/08 04:12:41;;;;;;;2.67;2.00;;;;;;;14.60;100.00;100909.81;6275786;28;20056;-83
2024/04/08 04:15:41;;;;;;;2.95;1.70;;;;;;;14.61;100.00;100901.75;6276129;28;20052;-82
2024/04/08 04:18:43;;;;;;;6.00;2.15;;;;;;;14.59;100.00;100879.88;6275817;28;20417;-82
2024/04/08 04:21:43;;;;;;;3.70;2.22;;;;;;;14.58;100.00;100887.88;6275843;28;20045;-83
2024/04/08 04:24:44;;;;;;;4.97;1.95;;;;;;;14.58;100.00;100894.06;6275841;28;20072;-83
2024/04/08 04:27:46;;;;;;;4.13;1.80;;;;;;;14.56;100.00;100906.50;6275781;28;20060;-82
2024/04/08 04:30:54;;;;;;;3.15;1.75;;;;;;;14.60;100.00;100889.50;6275547;28;20073;-82
2024/04/08 04:33:55;;;;;;;4.43;1.77;;;;;;;14.61;100.00;100883.25;6269468;28;20429;-82
2024/04/08 04:36:56;;;;;;;2.10;1.38;;;;;;;14.59;100.00;100877.22;6275380;28;20475;-82
2024/04/08 04:39:57;;;;;;;9.68;2.08;;;;;;;14.54;100.00;100884.63;6275735;28;20081;-81
2024/04/08 04:42:59;;;;;;;3.10;1.80;;;;;;;14.55;100.00;100891.59;6275145;28;20331;-82
2024/04/08 04:46:00;;;;;;;5.57;1.90;;;;;;;14.48;100.00;100885.03;6275174;28;20045;-81
2024/04/08 04:49:01;;;;;;;4.03;2.40;;;;;;;14.36;100.00;100868.16;6275413;28;20049;-81
2024/04/08 04:52:03;;;;;;;5.07;2.10;;;;;;;14.41;100.00;100859.94;6273183;28;20041;-81
2024/04/08 04:55:05;;;;;;;7.32;1.88;;;;;;;14.48;100.00;100861.22;6272453;28;20045;-81
2024/04/08 04:58:07;;;;;;;2.65;1.45;;;;;;;14.49;100.00;100857.66;6275048;28;20136;-82
2024/04/08 05:01:08;;;;;;;12.07;2.10;;;;;;;14.49;100.00;100838.25;6275048;28;20132;-81
2024/04/08 05:04:09;;;;;;;3.42;1.98;;;;;;;14.54;100.00;100847.59;6274903;28;20045;-82
2024/04/08 05:07:10;;;;;;;3.03;1.70;;;;;;;14.52;100.00;100840.72;6275187;28;20052;-81
2024/04/08 05:10:11;;;;;;;4.10;2.05;;;;;;;14.47;100.00;100848.94;6274575;28;20048;-81
2024/04/08 05:13:16;;;;;;;4.70;2.00;;;;;;;14.38;100.00;100850.38;6263621;28;20077;-81
2024/04/08 05:16:17;;;;;;;2.67;1.70;;;;;;;14.41;100.00;100841.41;6269241;28;20080;-81
2024/04/08 05:19:18;;;;;;;5.32;1.63;;;;;;;14.40;100.00;100839.75;6274807;28;20049;-81
2024/04/08 05:22:19;;;;;;;1.98;1.40;;;;;;;14.41;100.00;100846.72;6275129;28;20041;-81
2024/04/08 05:25:21;;;;;;;3.53;1.75;;;;;;;14.40;100.00;100840.56;6274645;28;20048;-81
2024/04/08 05:28:23;;;;;;;3.65;1.95;;;;;;;14.37;100.00;100834.66;6274951;28;20426;-81
2024/04/08 05:31:24;;;;;;;1.83;1.63;;;;;;;14.34;100.00;100842.78;6274772;28;20044;-81
2024/04/08 05:34:25;;;;;;;2.72;1.75;;;;;;;14.42;100.00;100843.94;6267336;28;20064;-81
2024/04/08 05:37:26;;;;;;;7.18;1.73;;;;;;;14.46;100.00;100844.59;6274647;28;20655;-81
2024/04/08 05:40:27;;;;;;;11.32;2.10;;;;;;;14.43;100.00;100836.88;6258429;28;20045;-81
2024/04/08 05:43:31;;;;;;;3.05;1.92;;;;;;;14.43;100.00;100836.88;6250007;28;20446;-81
2024/04/08 05:46:32;;;;;;;9.32;2.30;;;;;;;14.45;100.00;100853.50;6250233;28;20099;-81
2024/04/08 05:49:32;;;;;;;3.05;1.80;;;;;;;14.53;100.00;100852.97;6250280;28;20453;-81
2024/04/08 05:52:34;;;;;;;2.22;1.40;;;;;;;14.57;100.00;100859.75;6249830;28;20049;-81
2024/04/08 05:55:35;;;;;;;2.95;1.92;;;;;;;14.49;100.00;100854.13;6249968;28;20049;-81
2024/04/08 05:58:37;;;;;;;3.75;1.67;;;;;;;14.51;100.00;100855.75;6250130;28;20072;-81
2024/04/08 06:01:38;;;;;;;1.92;1.40;;;;;;;14.51;100.00;100853.09;6249960;28;20049;-81
2024/04/08 06:04:38;;;;;;;2.28;1.40;;;;;;;14.56;100.00;100843.03;6249861;28;20052;-81
2024/04/08 06:07:40;;;;;;;9.65;3.53;;;;;;;14.61;100.00;100830.34;6250078;28;20054;-81
2024/04/08 06:10:44;;;;;;;11.07;4.90;;;;;;;14.54;100.00;100828.25;6249705;28;20046;-81
2024/04/08 06:13:47;;;;;;;3.78;2.17;;;;;;;14.60;100.00;100836.59;6242358;28;20049;-81
2024/04/08 06:16:47;;;;;;;6.35;1.73;;;;;;;14.62;100.00;100824.09;6249794;28;20054;-81
2024/04/08 06:19:49;;;;;;;5.57;1.33;;;;;;;14.56;100.00;100823.69;6249851;28;20058;-81
2024/04/08 06:22:49;;;;;;;5.43;2.50;;;;;;;14.57;100.00;100828.00;6253645;28;20466;-80
2024/04/08 06:25:58;;;;;;;7.43;2.72;;;;;;;14.56;100.00;100827.19;6254137;28;20045;-81
2024/04/08 06:28:59;;;;;;;3.70;1.77;;;;;;;14.62;100.00;100832.03;6254403;28;20049;-81
2024/04/08 06:32:01;;;;;;;6.85;2.50;;;;;;;14.60;100.00;100839.25;6253833;28;20049;-81
2024/04/08 06:35:02;;;;;;;3.72;1.42;;;;;;;14.60;100.00;100836.59;6254107;28;20460;-80
2024/04/08 06:38:03;;;;;;;4.85;1.60;;;;;;;14.67;100.00;100845.81;6253830;28;20045;-80
2024/04/08 06:41:04;;;;;;;3.03;1.25;;;;;;;14.80;100.00;100845.78;6253697;28;20115;-80
2024/04/08 06:44:07;;;;;;;3.83;1.27;;;;;;;14.87;100.00;100841.78;6249263;28;20067;-80
2024/04/08 06:47:07;;;;;;;2.47;1.42;;;;;;;14.88;100.00;100842.63;6247049;28;20045;-80
2024/04/08 06:50:08;;;;;;;3.58;1.38;;;;;;;14.91;100.00;100842.41;6253610;28;20045;-80
2024/04/08 06:53:09;;;;;;;2.88;1.35;;;;;;;14.95;100.00;100849.19;6253432;28;20461;-81
2024/04/08 06:56:10;;;;;;;2.38;1.15;;;;;;;15.07;100.00;100848.31;6253816;28;20038;-80
2024/04/08 06:59:12;;;;;;;2.72;1.25;;;;;;;15.12;100.00;100832.94;6252127;28;20044;-80
2024/04/08 07:02:15;;;;;;;6.03;1.23;;;;;;;14.99;100.00;100834.78;6244824;28;20060;-80
2024/04/08 07:05:16;;;;;;;3.75;1.52;;;;;;;15.04;100.00;100837.13;6253221;28;20050;-81
2024/04/08 07:08:17;;;;;;;1.48;0.85;;;;;;;15.17;100.00;100827.31;6253496;28;20422;-82
2024/04/08 07:11:18;;;;;;;4.53;2.25;;;;;;;15.09;100.00;100811.16;6252509;28;20076;-80
2024/04/08 07:14:20;;;;;;;3.30;1.40;;;;;;;15.07;100.00;100802.47;6248569;28;20457;-80
2024/04/08 07:17:21;;;;;;;3.50;1.42;;;;;;;14.95;100.00;100805.03;6252403;28;20048;-81
2024/04/08 07:20:22;;;;;;;2.20;1.17;;;;;;;14.99;100.00;100803.03;6249810;28;20045;-80
2024/04/08 07:23:23;;;;;;;4.32;1.48;;;;;;;14.95;100.00;100805.03;6252505;28;20049;-76
2024/04/08 07:26:24;;;;;;;2.88;1.20;;;;;;;14.90;100.00;100799.22;6252739;28;20436;-76
2024/04/08 07:29:26;;;;;;;2.35;1.30;;;;;;;14.98;100.00;100796.88;6244594;28;20052;-75
2024/04/08 07:32:29;;;;;;;3.75;0.90;;;;;;;15.06;100.00;100790.19;6247336;28;20454;-76
2024/04/08 07:35:30;;;;;;;5.68;1.50;;;;;;;15.16;100.00;100781.47;6252473;28;20167;-78
2024/04/08 07:38:32;;;;;;;5.60;1.05;;;;;;;15.20;100.00;100790.88;6252440;28;20079;-76
2024/04/08 07:41:32;;;;;;;4.28;1.35;;;;;;;15.28;100.00;100784.22;6252236;28;20053;-80
2024/04/08 07:44:35;;;;;;;4.88;1.50;;;;;;;15.38;100.00;100788.72;6251579;28;20430;-78
2024/04/08 07:47:35;;;;;;;5.93;1.00;;;;;;;15.39;100.00;100789.56;6251191;28;20402;-78
2024/04/08 07:50:38;;;;;;;1.52;0.93;;;;;;;15.33;100.00;100790.00;6251429;28;20057;-80
2024/04/08 07:53:38;;;;;;;8.75;1.95;;;;;;;15.37;100.00;100781.72;6252060;28;20060;-82
2024/04/08 07:56:40;;;;;;;3.38;1.45;;;;;;;15.43;100.00;100785.72;6252058;28;20045;-80
2024/04/08 07:59:42;;;;;;;3.20;0.98;;;;;;;15.55;100.00;100790.13;6251732;28;20053;-83
2024/04/08 08:02:44;;;;;;;8.00;0.80;;;;;;;15.58;100.00;100799.66;6251662;28;20402;-82
2024/04/08 08:05:44;;;;;;;3.97;1.02;;;;;;;15.65;100.00;100792.97;6251597;28;20180;-82
2024/04/08 08:08:46;;;;;;;2.95;1.42;;;;;;;15.70;100.00;100786.38;6251779;28;20049;-83
2024/04/08 08:11:47;;;;;;;2.70;1.35;;;;;;;15.78;100.00;100784.97;6250144;28;20053;-83
2024/04/08 08:14:52;;;;;;;2.97;1.08;;;;;;;15.73;100.00;100790.63;6246317;28;20052;-84
2024/04/08 08:17:54;;;;;;;1.80;1.35;;;;;;;15.87;100.00;100794.88;6251245;28;20511;-82
2024/04/08 08:20:56;;;;;;;3.30;1.23;;;;;;;15.99;100.00;100793.97;6251261;28;20049;-82
2024/04/08 08:23:57;;;;;;;1.67;0.90;;;;;;;16.15;100.00;100809.56;6245318;28;20053;-82
2024/04/08 08:26:59;;;;;;;3.10;1.10;;;;;;;16.31;100.00;100803.94;6251357;28;20050;-82
2024/04/08 08:30:02;;;;;;;2.78;0.90;;;;;;;16.38;100.00;100803.34;6251091;28;20358;-82
2024/04/08 08:33:04;;;;;;;4.75;0.95;;;;;;;16.44;100.00;100800.25;6251216;28;20045;-83
2024/04/08 08:36:06;;;;;;;4.43;1.10;;;;;;;16.51;100.00;100789.13;6251248;28;20053;-82
2024/04/08 08:39:06;;;;;;;4.22;0.85;;;;;;;16.52;100.00;100783.72;6248274;28;20057;-83
2024/04/08 08:42:09;;;;;;;1.60;0.70;;;;;;;16.56;100.00;100792.28;6250670;28;20061;-82
2024/04/08 08:45:11;;;;;;;4.07;0.95;;;;;;;16.65;100.00;100773.81;6242001;28;20319;-82
2024/04/08 08:49:35;;;;;;;5.85;1.00;;;;;;;16.69;100.00;100780.59;6889085;25;20309;-81
2024/04/08 08:52:36;;;;;;;1.55;1.00;;;;;;;16.76;100.00;100782.78;6889674;25;20451;-81
2024/04/08 08:55:39;;;;;;;4.75;1.25;;;;;;;16.72;100.00;100780.38;6889332;25;19997;-82
2024/04/08 08:58:47;;;;;;;1.63;0.80;;;;;;;16.92;100.00;100777.97;6889617;25;20486;-83
2024/04/08 09:01:47;;;;;;;4.68;0.82;;;;;;;17.06;100.00;100771.56;6889152;25;19989;-80
2024/04/08 09:04:54;;;;;;;5.35;1.00;;;;;;;17.12;100.00;100771.91;6889678;25;19997;-82
2024/04/08 09:07:57;;;;;;;3.78;1.08;;;;;;;17.27;100.00;100772.50;6889333;25;19993;-79
2024/04/08 09:10:58;;;;;;;3.80;0.93;;;;;;;17.49;100.00;100771.59;6889324;25;20048;-80
2024/04/08 09:14:08;;;;;;;4.03;1.05;;;;;;;17.49;100.00;100756.47;6882537;25;19998;-80
2024/04/08 09:17:10;;;;;;;5.07;1.05;;;;;;;17.55;100.00;100757.78;6843184;25;19994;-82
2024/04/08 09:20:16;;;;;;;7.60;0.90;;;;;;;17.52;100.00;100754.53;6880437;25;20070;-82
2024/04/08 09:23:17;;;;;;;4.75;1.30;;;;;;;17.61;100.00;100751.13;6859314;25;20394;-81
2024/04/08 09:26:20;;;;;;;3.15;1.00;;;;;;;17.66;100.00;100736.47;6857680;25;19996;-79
2024/04/08 09:29:23;;;;;;;2.47;1.52;;;;;;;17.71;100.00;100738.75;6886246;25;20414;-80
2024/04/08 09:32:26;;;;;;;2.47;0.82;;;;;;;17.66;100.00;100735.63;6888687;25;20075;-81
2024/04/08 09:35:38;;;;;;;1.80;0.95;;;;;;;17.69;100.00;100735.38;6888572;25;19993;-82
2024/04/08 09:38:42;;;;;;;1.48;0.70;;;;;;;17.70;100.00;100742.38;6888718;25;20319;-80
2024/04/08 09:41:42;;;;;;;3.97;1.17;;;;;;;17.61;100.00;100743.13;6847893;25;20008;-82
2024/04/08 09:44:46;;;;;;;4.05;1.05;;;;;;;17.52;100.00;100735.94;6863742;25;20001;-79
2024/04/08 09:47:51;;;;;;;3.92;1.25;;;;;;;17.53;100.00;100722.50;6873369;25;19993;-80
2024/04/08 09:51:00;;;;;;;4.35;0.70;;;;;;;17.60;100.00;100726.34;6877761;25;20057;-81
2024/04/08 09:54:03;;;;;;;4.00;1.10;;;;;;;17.63;100.00;100736.75;6888502;25;20091;-80
2024/04/08 09:57:08;;;;;;;1.75;1.10;;;;;;;17.56;100.00;100732.91;6887010;25;20254;-81
2024/04/08 10:00:16;;;;;;;3.53;0.85;;;;;;;17.60;100.00;100734.31;6871955;25;19996;-80
2024/04/08 10:03:20;;;;;;;2.13;1.15;;;;;;;17.67;100.00;100732.03;6855638;26;20033;-80
2024/04/08 10:06:26;;;;;;;2.30;1.17;;;;;;;17.72;100.00;100724.50;6868093;25;20022;-81
2024/04/08 10:09:29;;;;;;;5.75;1.75;;;;;;;17.74;100.00;100710.13;6868087;25;19990;-82
2024/04/08 10:12:31;;;;;;;3.88;0.77;;;;;;;17.81;100.00;100693.69;6867416;25;20365;-81
2024/04/08 10:15:36;;;;;;;5.65;1.48;;;;;;;17.83;100.00;100683.75;6868192;25;19998;-81
2024/04/08 10:18:48;;;;;;;7.78;1.27;;;;;;;17.97;100.00;100686.06;6867944;25;20009;-78
2024/04/08 10:21:59;;;;;;;2.25;1.00;;;;;;;17.97;100.00;100683.41;6867894;25;20008;-78
2024/04/08 10:25:03;;;;;;;6.13;1.10;;;;;;;17.96;100.00;100679.06;6868020;25;20095;-78
2024/04/08 10:28:06;;;;;;;3.03;1.15;;;;;;;17.84;100.00;100682.75;6867386;25;20378;-78
2024/04/08 10:31:09;;;;;;;3.60;1.20;;;;;;;17.84;100.00;100672.97;6855283;25;20057;-78
2024/04/08 10:34:13;;;;;;;5.43;1.10;;;;;;;17.93;100.00;100666.88;6822700;26;20058;-78
2024/04/08 10:37:16;;;;;;;4.32;0.98;;;;;;;17.95;100.00;100661.44;6823267;25;20251;-79
2024/04/08 10:40:23;;;;;;;5.47;1.65;;;;;;;18.17;100.00;100671.06;6822163;26;20001;-78
2024/04/08 10:43:23;;;;;;;3.75;1.27;;;;;;;18.37;100.00;100672.84;6834987;26;20016;-77
2024/04/08 10:46:27;;;;;;;4.90;1.58;;;;;;;18.38;100.00;100690.47;6867271;25;20374;-77
2024/04/08 10:49:28;;;;;;;4.85;1.27;;;;;;;18.46;100.00;100684.50;6867186;25;20321;-78
2024/04/08 10:52:43;;;;;;;7.68;1.70;;;;;;;18.46;100.00;100679.16;6866898;25;20016;-79
2024/04/08 10:55:43;;;;;;;6.47;1.38;;;;;;;18.60;100.00;100683.28;6866707;25;19993;-78
2024/04/08 10:58:46;;;;;;;4.13;1.27;;;;;;;18.62;100.00;100666.22;6867183;25;19998;-77
2024/04/08 11:01:49;;;;;;;7.13;1.75;;;;;;;18.83;100.00;100652.00;6866921;25;20009;-77
2024/04/08 11:04:54;;;;;;;8.95;2.20;;;;;;;19.02;100.00;100660.00;6867184;25;20052;-77
2024/04/08 11:08:00;;;;;;;5.00;1.67;;;;;;;19.19;100.00;100669.97;6867158;25;20005;-77
2024/04/08 11:11:04;;;;;;;4.68;1.52;;;;;;;19.36;100.00;100660.44;6866828;25;20365;-77
2024/04/08 11:14:05;;;;;;;7.97;2.00;;;;;;;19.50;100.00;100659.19;6867090;25;19989;-78
2024/04/08 11:17:09;;;;;;;13.25;2.55;;;;;;;19.71;100.00;100669.69;6867148;25;20020;-78
2024/04/08 11:20:16;;;;;;;12.35;2.47;;;;;;;19.81;100.00;100672.38;6866807;25;20005;-78
2024/04/08 11:23:22;;;;;;;9.85;1.90;;;;;;;19.99;100.00;100674.16;6866497;25;20406;-78
2024/04/08 11:26:22;;;;;;;5.28;2.00;;;;;;;20.02;100.00;100679.16;6866808;25;19997;-79
2024/04/08 11:29:26;;;;;;;3.03;1.48;;;;;;;20.05;100.00;100667.38;6866747;25;20430;-79
2024/04/08 11:32:27;;;;;;;5.57;1.85;;;;;;;19.89;100.00;100659.97;6866289;25;20082;-79
2024/04/08 11:35:30;;;;;;;5.18;2.22;;;;;;;19.97;100.00;100660.09;6866664;25;20005;-78
2024/04/08 11:38:35;;;;;;;7.75;2.47;;;;;;;19.95;100.00;100661.25;6866701;25;19989;-79
2024/04/08 11:41:38;;;;;;;10.32;2.67;;;;;;;19.99;100.00;100666.16;6866503;25;19993;-79
2024/04/08 11:44:41;;;;;;;6.72;2.83;;;;;;;20.07;100.00;100665.41;6866877;25;20365;-78
2024/04/08 11:47:44;;;;;;;10.50;2.22;;;;;;;19.94;100.00;100667.53;6866474;25;19997;-81
2024/04/08 11:50:44;;;;;;;6.60;2.53;;;;;;;19.80;100.00;100660.84;6866252;25;20321;-80
2024/04/08 11:53:50;;;;;;;11.35;2.67;;;;;;;19.80;100.00;100660.00;6866586;25;19997;-81
2024/04/08 11:56:51;;;;;;;9.38;3.50;;;;;;;20.34;100.00;100655.75;6866240;25;20053;-80
2024/04/08 11:59:54;;;;;;;9.30;2.42;;;;;;;20.92;100.00;100644.78;6830449;25;20006;-78
2024/04/08 12:02:54;;;;;;;4.38;2.25;;;;;;;21.25;100.00;100640.59;6820631;26;20022;-80
2024/04/08 12:05:57;;;;;;;5.82;2.10;;;;;;;21.36;100.00;100637.72;6820879;26;20273;-78
2024/04/08 12:09:05;;;;;;;9.10;2.97;;;;;;;21.14;100.00;100643.50;6841843;26;20037;-78
2024/04/08 12:12:06;;;;;;;5.85;2.80;;;;;;;21.03;100.00;100640.06;6785410;21;20251;-74
2024/04/08 12:15:10;;;;;;;11.05;2.88;;;;;;;21.12;100.00;100634.78;6686375;26;20061;-77
2024/04/08 12:18:10;;;;;;;6.15;2.95;;;;;;;21.24;100.00;100650.44;6685885;26;19992;-75
2024/04/08 12:21:13;;;;;;;15.82;2.85;;;;;;;21.50;100.00;100663.06;6654072;26;20001;-74
2024/04/08 12:24:19;;;;;;;6.80;2.28;;;;;;;21.70;100.00;100655.69;6642255;26;19997;-77
2024/04/08 12:27:20;;;;;;;14.13;3.97;;;;;;;21.70;100.00;100640.47;6642250;26;20415;-75
2024/04/08 12:30:23;;;;;;;11.18;2.90;;;;;;;21.51;100.00;100641.50;6642551;26;20032;-74
2024/04/08 12:33:26;;;;;;;6.18;3.22;;;;;;;20.97;100.00;100646.00;6685457;26;20365;-77
2024/04/08 12:36:26;;;;;;;7.10;3.10;;;;;;;20.70;100.00;100656.72;6685431;26;19992;-77
2024/04/08 12:39:32;;;;;;;14.98;3.95;;;;;;;20.56;100.00;100654.56;6685606;26;20061;-77
2024/04/08 12:42:32;;;;;;;6.18;3.75;;;;;;;20.95;100.00;100645.31;6685083;26;19992;-77
2024/04/08 12:45:36;;;;;;;13.80;3.95;;;;;;;21.47;100.00;100645.50;6685415;26;20369;-74
2024/04/08 12:48:36;;;;;;;10.70;4.38;;;;;;;22.01;100.00;100648.03;6685174;26;19996;-75
2024/04/08 12:51:39;;;;;;;10.85;4.15;;;;;;;22.35;100.00;100648.09;6684093;26;20000;-75
2024/04/08 12:54:45;;;;;;;8.95;3.60;;;;;;;22.63;100.00;100648.69;6684545;26;20451;-74
2024/04/08 12:57:46;;;;;;;8.52;4.00;;;;;;;22.67;100.00;100660.78;6684573;26;20365;-75
2024/04/08 13:00:49;;;;;;;9.57;4.28;;;;;;;22.41;100.00;100651.97;6684758;26;20000;-74
2024/04/08 13:03:49;;;;;;;12.38;4.32;;;;;;;22.48;100.00;100650.31;6685158;26;20128;-75
2024/04/08 13:06:52;;;;;;;9.95;4.18;;;;;;;22.95;100.00;100645.28;6685070;26;19996;-75
2024/04/08 13:09:58;;;;;;;5.90;2.80;;;;;;;22.92;100.00;100632.22;6684641;26;20371;-74
2024/04/08 13:13:01;;;;;;;10.88;3.22;;;;;;;23.23;100.00;100615.50;6682992;26;19997;-75
2024/04/08 13:16:01;;;;;;;11.80;3.67;;;;;;;23.51;88.62;100621.34;6684649;26;20334;-75
2024/04/08 13:19:04;;;;;;;5.43;3.17;;;;;;;23.18;90.64;100607.13;6684656;26;20000;-74
2024/04/08 13:22:07;;;;;;;7.57;3.40;;;;;;;22.86;93.02;100603.38;6684311;26;20032;-75
2024/04/08 13:25:13;;;;;;;5.95;3.03;;;;;;;23.07;96.28;100599.41;6681537;26;20972;-75
2024/04/08 13:28:13;;;;;;;6.97;3.30;;;;;;;23.51;91.16;100590.00;6676652;26;20000;-75
2024/04/08 13:31:16;;;;;;;10.07;3.78;;;;;;;23.70;81.65;100575.41;6681714;26;20032;-74
2024/04/08 13:34:19;;;;;;;7.68;3.33;;;;;;;23.40;88.24;100562.72;6685293;26;20069;-75
2024/04/08 13:37:20;;;;;;;8.40;3.30;;;;;;;23.42;84.98;100555.31;6685278;26;19996;-73
2024/04/08 13:40:25;;;;;;;7.90;3.40;;;;;;;23.32;87.51;100551.97;6680730;26;20446;-74
2024/04/08 13:43:28;;;;;;;10.90;4.03;;;;;;;23.38;88.80;100536.03;6687948;26;19996;-74
2024/04/08 13:46:31;;;;;;;7.35;3.65;;;;;;;22.68;83.73;100541.06;6687599;26;20053;-74
2024/04/08 13:49:32;;;;;;;10.38;3.35;;;;;;;22.24;88.17;100535.91;6686201;26;20061;-75
2024/04/08 13:52:35;;;;;;;10.32;3.92;;;;;;;22.10;90.97;100512.44;6688176;26;20004;-75
2024/04/08 13:55:40;;;;;;;8.93;4.40;;;;;;;22.80;86.51;100515.63;6688391;26;19996;-75
2024/04/08 13:58:44;;;;;;;10.65;3.88;;;;;;;23.28;83.46;100530.84;6688688;26;19992;-75